Pagina principale
METAR-TAF:

METAR-TAF

Aeroporti :

Aeroporto di Verona-Villafranca

Verona, Italia

latitudine: 45-23N, longitudine: 010-52E, altezza: 67 m

Osservazione

Il bollettino è stato emesso 19 minuti fa, alle 02:50 UTC
Vento 1 kt da direzioni variabili
Temperature 3°C
Umidità 100%
Pressione 1018 hPa
Visibilità: 5000 m
foschia

METAR: LIPX 240250Z VRB01KT 5000 BR NSC 03/03 Q1018

Ora: 04:09 (03:09 UTC)

Previsione

Il bollettino è stato emesso 6 ore e 20 minuti fa, alle 20:49 UTC
Previsione valida dal 23 alle 21 UTC al 24 alle 06 UTC
Vento 5 kt da direzioni variabili
Visibilità: 5000 m
foschia
Probabilità 30% :
Temporaneamente
dal 24 alle 02 UTC al 24 alle 06 UTC
Visibilità: 1200 m
Nuvoloso ad un'altezza di 1000 ft
banchi di nebbia

TAF: LIPX 232049Z 2321/2406 VRB05KT 5000 BR NSC PROB30 TEMPO 2402/2406 1200 BCFG BKN010

Osservazioni e previsioni meteorologiche di più di 4000 aeroporti (messaggi METAR e TAF).

Le stazioni disponibili sono rappresentate dai dischi gialli e rossi sulla carta.

Puntare il mouse per vedere il nome della stazione.

Clicca sopra per visualizzare le osservazioni e previsioni meteorologiche.

Per cambiare la mappa : fare clic sui pulsanti verdi con una croce nera per ingrandire, il pulsante verde con un trattino per diminuire, o sulla freccia verde per le mappe adiacenti.


METAR-TAF: